Seznam meteostanic stanic Slunecno.cz
Reklama

Seznam meteostanic a jejich METAR

Vyhledat místa podle abecedy:
A B C D E F G H I J K L M N O P Q R S T U V W X Y Z

Filtrovat:

ID stanice:
a/nebo
Název místa (fulltext):
 
Místo (ID)Naposledy načteno 
Brno - Tuřany (Brno/Tu) 22.05.2019 14:00 UTC Zobrazit data
Místo: Brno - Tuřany
Teplota: 14 °C (pocitová: 9.8 °C)
Vítr: 7 m/s z(e) 290°
Počasí: déšť
Dohlednost: 18 km
Zákl. oblačnosti: 1/8 480 m;8/8 2700 m
Vlhkost: 88%
Červená - Opava (Cervena/uL) 22.05.2019 14:00 UTC Zobrazit data
Místo: Červená - Opava
Teplota: 12 °C (pocitová: 7.3 °C)
Vítr: 6 m/s z(e) 310°
Počasí: zataženo
Dohlednost: 30 km
Zákl. oblačnosti: 8/8 360 m
Vlhkost: 88%
České Budějovice (C.Budej/po) 22.05.2019 14:00 UTC Zobrazit data
Místo: České Budějovice
Teplota: 15 °C (pocitová: 12.2 °C)
Vítr: 4 m/s z(e) 300°
Počasí: zataženo
Dohlednost: 35 km
Zákl. oblačnosti: 3/8 780 m;8/8 1080 m
Vlhkost: 68%
Cheb (Cheb) 22.05.2019 14:00 UTC Zobrazit data
Místo: Cheb
Teplota: 13 °C (pocitová: 9 °C)
Vítr: 5 m/s z(e) 330°
Počasí: zataženo
Dohlednost: 25 km
Zákl. oblačnosti: 7/8 690 m
Vlhkost: 72%
Chotusice - Čáslav (Caslav) 22.05.2019 14:00 UTC Zobrazit data
Místo: Chotusice - Čáslav
Teplota: 12 °C (pocitová: 6.5 °C)
Vítr: 9 m/s z(e) 300°
Počasí: déšť
Dohlednost: 7 km
Zákl. oblačnosti: 5/8 330 m;8/8 660 m
Vlhkost: 88%
Churáňov (Churanov) 22.05.2019 14:00 UTC Zobrazit data
Místo: Churáňov
Teplota: 9 °C (pocitová: 3.4 °C)
Vítr: 5 m/s z(e) 260°
Počasí: zataženo
Dohlednost: 11 km
Zákl. oblačnosti: 6/8 210 m;8/8 1020 m
Vlhkost: 94%
Doksany - Litoměřice (Doksany) 22.05.2019 14:00 UTC Zobrazit data
Místo: Doksany - Litoměřice
Teplota: 13 °C (pocitová: 9 °C)
Vítr: 5 m/s z(e) 310°
Počasí: déšť
Dohlednost: 18 km
Zákl. oblačnosti: 8/8 750 m
Vlhkost: 88%
Dukovany (Dukovany) 22.05.2019 14:00 UTC Zobrazit data
Místo: Dukovany
Teplota: 13 °C (pocitová: 7.7 °C)
Vítr: 10 m/s z(e) 300°
Počasí: déšť
Dohlednost: 16 km
Zákl. oblačnosti: 8/8 570 m
Vlhkost: 88%
Holešov (Holesov) 22.05.2019 14:00 UTC Zobrazit data
Místo: Holešov
Teplota: 14 °C (pocitová: 10.1 °C)
Vítr: 6 m/s z(e) 310°
Počasí: déšť
Dohlednost: 20 km
Zákl. oblačnosti: 2/8 270 m;8/8 480 m
Vlhkost: 88%
Kadaň - Tušimice (Tusimice) 22.05.2019 14:00 UTC Zobrazit data
Místo: Kadaň - Tušimice
Teplota: 14 °C (pocitová: 10.1 °C)
Vítr: 6 m/s z(e) 290°
Počasí: zataženo
Dohlednost: 18 km
Zákl. oblačnosti: 7/8 720 m
Vlhkost: 82%
Karlovy Vary (K.Vary) 22.05.2019 14:00 UTC Zobrazit data
Místo: Karlovy Vary
Teplota: 12 °C (pocitová: 6.9 °C)
Vítr: 7 m/s z(e) 300°
Počasí: zataženo
Dohlednost: 15 km
Zákl. oblačnosti: 6/8 390 m;8/8 540 m
Vlhkost: 82%
Kocelovice (Kocelovice) 22.05.2019 14:00 UTC Zobrazit data
Místo: Kocelovice
Teplota: 14 °C (pocitová: 10.1 °C)
Vítr: 6 m/s z(e) 290°
Počasí: skoro zataženo
Dohlednost: 29 km
Zákl. oblačnosti: 6/8 690 m;7/8 1290 m
Vlhkost: 77%
Kopisty (Kopisty) 22.05.2019 12:00 UTC Zobrazit data
Místo: Kopisty
Teplota: 13 °C (pocitová: 11.7 °C)
Vítr: 1 m/s z(e) 280°
Počasí: déšť
Dohlednost: 11 km
Zákl. oblačnosti: 8/8 690 m
Vlhkost: 88%
Kostelní Myslová (K.Myslova) 22.05.2019 14:00 UTC Zobrazit data
Místo: Kostelní Myslová
Teplota: 11 °C (pocitová: 7.3 °C)
Vítr: 3 m/s z(e) 290°
Počasí: déšť
Dohlednost: 13 km
Zákl. oblačnosti: 7/8 330 m;8/8 810 m
Vlhkost: 100%
Křešín - Kramolín (Kramolin) 22.05.2019 14:00 UTC Zobrazit data
Místo: Křešín - Kramolín
Teplota: 11 °C (pocitová: 5.5 °C)
Vítr: 7 m/s z(e) 300°
Počasí: déšť
Dohlednost: 10 km
Zákl. oblačnosti: 8/8 270 m
Vlhkost: 94%
Kuchařovice - Znojmo (Kucharovic) 22.05.2019 14:00 UTC Zobrazit data
Místo: Kuchařovice - Znojmo
Teplota: 14 °C (pocitová: 9.5 °C)
Vítr: 8 m/s z(e) 290°
Počasí: zataženo
Dohlednost: 30 km
Zákl. oblačnosti: 7/8 840 m
Vlhkost: 82%
Liberec (Liberec) 22.05.2019 14:00 UTC Zobrazit data
Místo: Liberec
Teplota: 10 °C (pocitová: 5.3 °C)
Vítr: 4 m/s z(e) 320°
Počasí: déšť
Dohlednost: 4000 m
Zákl. oblačnosti: 6/8 180 m
Vlhkost: 94%
Luká (Luka) 22.05.2019 14:00 UTC Zobrazit data
Místo: Luká
Teplota: 11 °C (pocitová: 4.5 °C)
Vítr: 11 m/s z(e) 300°
Počasí: déšť
Dohlednost: 20 km
Zákl. oblačnosti: 6/8 240 m;7/8 990 m
Vlhkost: 88%
Lysá Hora (Lysa Hora) 21.05.2019 19:00 UTC Zobrazit data
Místo: Lysá Hora
Teplota: 8 °C (pocitová: 1.6 °C)
Vítr: 6 m/s z(e) 260°
Počasí: déšť
Dohlednost: 35 km
Zákl. oblačnosti: 2/8 150 m;7/8 780 m
Vlhkost: 93%
Milešovka (Milesovka) 22.05.2019 04:00 UTC Zobrazit data
Místo: Milešovka
Teplota: 9 °C (pocitová: 0.8 °C)
Vítr: 14 m/s z(e) 320°
Počasí: zataženo
Dohlednost: 11 km
Zákl. oblačnosti: N/A
Vlhkost: 100%
Mošnov (Ostrava/Mo) 22.05.2019 14:00 UTC Zobrazit data
Místo: Mošnov
Teplota: 17 °C (pocitová: 15.3 °C)
Vítr: 3 m/s z(e) 30°
Počasí: skoro zataženo
Dohlednost: 20 km
Zákl. oblačnosti: 1/8 480 m;6/8 990 m
Vlhkost: 83%
Náměšť nad Oslavou (Namest n/O) 22.05.2019 14:00 UTC Zobrazit data
Místo: Náměšť nad Oslavou
Teplota: 12 °C (pocitová: 6.2 °C)
Vítr: 10 m/s z(e) 290°
Počasí: déšť
Dohlednost: 10 km
Zákl. oblačnosti: 6/8 360 m;8/8 510 m
Vlhkost: 94%
Pardubice (Pardubice) 22.05.2019 14:00 UTC Zobrazit data
Místo: Pardubice
Teplota: 12 °C (pocitová: 7.3 °C)
Vítr: 6 m/s z(e) 280°
Počasí: déšť
Dohlednost: 4000 m
Zákl. oblačnosti: 6/8 270 m;8/8 450 m
Vlhkost: 88%
Pec pod Sněžkou (Pec p.Snez) 22.05.2019 14:00 UTC Zobrazit data
Místo: Pec pod Sněžkou
Teplota: 10 °C (pocitová: 5.3 °C)
Vítr: 4 m/s z(e) 40°
Počasí: déšť
Dohlednost: 10 km
Zákl. oblačnosti: 7/8 450 m
Vlhkost: 88%
Plzeň město - Mikulka (Plzen/Miku) 22.05.2019 14:00 UTC Zobrazit data
Místo: Plzeň město - Mikulka
Teplota: 16 °C (pocitová: 12.9 °C)
Vítr: 6 m/s z(e) 300°
Počasí: skoro zataženo
Dohlednost: 35 km
Zákl. oblačnosti: 7/8 750 m
Vlhkost: 72%
Polom (Polom) 22.05.2019 14:00 UTC Zobrazit data
Místo: Polom
Teplota: 9 °C (pocitová: 3.9 °C)
Vítr: 4 m/s z(e) 310°
Počasí: déšť
Dohlednost: 2000 m
Zákl. oblačnosti: 8/8 60 m
Vlhkost: 100%
Praha - Karlov (Praha/Kar) 22.05.2019 14:00 UTC Zobrazit data
Místo: Praha - Karlov
Teplota: 13 °C (pocitová: 9 °C)
Vítr: 5 m/s z(e) 300°
Počasí: déšť
Dohlednost: 17 km
Zákl. oblačnosti: 8/8 510 m
Vlhkost: 88%
Praha - Kbely (Praha/Kbe) 22.05.2019 14:00 UTC Zobrazit data
Místo: Praha - Kbely
Teplota: 13 °C (pocitová: 9 °C)
Vítr: 5 m/s z(e) 290°
Počasí: zataženo
Dohlednost: 12 km
Zákl. oblačnosti: 3/8 540 m;8/8 900 m
Vlhkost: 82%
Praha - Libuš (Praha/Lib) 22.05.2019 14:00 UTC Zobrazit data
Místo: Praha - Libuš
Teplota: 13 °C (pocitová: 9.4 °C)
Vítr: 4 m/s z(e) 300°
Počasí: déšť
Dohlednost: 12 km
Zákl. oblačnosti: 4/8 480 m;8/8 690 m
Vlhkost: 82%
Praha - Ruzyně (Praha/Ru) 22.05.2019 14:00 UTC Zobrazit data
Místo: Praha - Ruzyně
Teplota: 12 °C (pocitová: 7.6 °C)
Vítr: 5 m/s z(e) 300°
Počasí: déšť
Dohlednost: 9 km
Zákl. oblačnosti: 3/8 360 m;5/8 480 m
Vlhkost: 88%
Přibyslav (Pribyslav) 22.05.2019 14:00 UTC Zobrazit data
Místo: Přibyslav
Teplota: 10 °C (pocitová: 4 °C)
Vítr: 7 m/s z(e) 310°
Počasí: déšť
Dohlednost: 4000 m
Zákl. oblačnosti: 8/8 210 m
Vlhkost: 94%
Přimda (Primda) 22.05.2019 14:00 UTC Zobrazit data
Místo: Přimda
Teplota: 11 °C (pocitová: 6.2 °C)
Vítr: 5 m/s z(e) 280°
Počasí: zataženo
Dohlednost: 35 km
Zákl. oblačnosti: 1/8 300 m;8/8 420 m
Vlhkost: 82%
Šerák (Serak) 21.05.2019 21:00 UTC Zobrazit data
Místo: Šerák
Teplota: 8 °C (pocitová: 2 °C)
Vítr: 5 m/s z(e) 290°
Počasí: zataženo
Dohlednost: 200 m
Zákl. oblačnosti: 5/8 30 m;8/8 1020 m
Vlhkost: 100%
Svratouch (Svratouch) 22.05.2019 14:00 UTC Zobrazit data
Místo: Svratouch
Teplota: 9 °C (pocitová: 3.4 °C)
Vítr: 5 m/s z(e) 310°
Počasí: déšť
Dohlednost: 3000 m
Zákl. oblačnosti: 8/8 60 m
Vlhkost: 100%
Temelín (Temelin) 22.05.2019 14:00 UTC Zobrazit data
Místo: Temelín
Teplota: 13 °C (pocitová: 8.7 °C)
Vítr: 6 m/s z(e) 280°
Počasí: déšť
Dohlednost: 35 km
Zákl. oblačnosti: 8/8 570 m
Vlhkost: 88%
Ústí nad Labem - Kočkov (Usti n/L) 22.05.2019 14:00 UTC Zobrazit data
Místo: Ústí nad Labem - Kočkov
Teplota: 11 °C (pocitová: 5.5 °C)
Vítr: 7 m/s z(e) 320°
Počasí: zataženo
Dohlednost: 25 km
Zákl. oblačnosti: 8/8 360 m
Vlhkost: 88%
Ústí nad Orlicí (Usti n/O) 22.05.2019 14:00 UTC Zobrazit data
Místo: Ústí nad Orlicí
Teplota: 11 °C (pocitová: 5.1 °C)
Vítr: 8 m/s z(e) 270°
Počasí: déšť
Dohlednost: 5 km
Zákl. oblačnosti: 7/8 180 m;8/8 570 m
Vlhkost: 100%
Aalborg (EKYT) 22.05.2019 13:50 UTC Zobrazit METAR
EKYT 221350Z AUTO 27011KT 9999 -RA FEW009/// SCT014/// BKN017/// 11/10 Q1013
Aarhus (EKAH) 12.05.2019 05:50 UTC Zobrazit METAR
EKAH 120550Z 29013KT CAVOK 08/05 Q1024
Abu Dhabi (OMAA) 22.05.2019 14:00 UTC Zobrazit METAR
OMAA 221400Z 27011KT CAVOK 33/20 Q1008 NOSIG
Abuja (DNAA) 22.05.2019 14:00 UTC Zobrazit METAR
DNAA 221400Z 28006KT 240V310 9999 SCT013 30/22 Q1013 NOSIG
Accra (DGAA) 22.05.2019 14:00 UTC Zobrazit METAR
DGAA 221400Z 18010KT 9999 FEW020 30/24 Q1010 NOSIG
Addis Abeba (HAAB) 20.05.2019 23:00 UTC Zobrazit METAR
HAAB 202300Z 21004KT 9999 BKN024 SCT080 17/12 Q1027
Agana (PGUM) 22.05.2019 13:54 UTC Zobrazit METAR
PGUM 221354Z 00000KT 9SM CLR 27/24 A2990 RMK AO2 SLP117 T02720239 403220256
Ahe Island (NTHE) Zatím nenačteno  
Akureyri (BIAR) 22.05.2019 14:00 UTC Zobrazit METAR
BIAR 221400Z 32008KT 290V350 9999 OVC025 09/05 Q1027
Almaty (UAAA) Zatím nenačteno  
Amman (OJAM) 22.05.2019 14:00 UTC Zobrazit METAR
OJAM 221400Z 34010KT 5000 HZ NSC 35/M01 Q1019 NOSIG
Amsterdam (EHAM) 22.05.2019 13:55 UTC Zobrazit METAR
EHAM 221355Z 30008KT 9999 FEW022 16/10 Q1019 NOSIG
Antananarivo (FMMI) 22.05.2019 11:00 UTC Zobrazit METAR
FMMI 221100Z 22005KT 160V260 9999 BKN023 27/15 Q1020 NOSIG
1 2 3 ... 9 Další
Reklama

Počasí na Váš email

Emaily jsou bez reklamy a bez spamu



Odhlásit newsletter

Reklama


Lunární kalendář

  • 26.05.
  • 03.06.
  • 10.06.
  • 17.06.



Reklama


Reklama
Povinné ručení
Reklama



Reklama